createdAt,value
2023-02-19T00:00:01.142Z,7.80
2023-02-19T00:02:28.875Z,7.80
2023-02-19T00:04:56.684Z,7.90
2023-02-19T00:07:24.466Z,7.80
2023-02-19T00:09:52.242Z,7.80
2023-02-19T00:12:20.040Z,7.80
2023-02-19T00:14:47.822Z,7.80
2023-02-19T00:17:15.685Z,7.80
2023-02-19T00:19:43.440Z,7.80
2023-02-19T00:22:11.197Z,7.80
2023-02-19T00:24:39.122Z,7.80
2023-02-19T00:27:06.929Z,7.80
2023-02-19T00:29:34.653Z,7.80
2023-02-19T00:32:02.498Z,7.90
2023-02-19T00:34:30.814Z,7.80
2023-02-19T00:36:58.603Z,7.80
2023-02-19T00:39:26.279Z,7.90
2023-02-19T00:41:54.118Z,7.90
2023-02-19T00:44:21.927Z,7.90
2023-02-19T00:46:49.740Z,7.80
2023-02-19T00:49:20.870Z,7.80
2023-02-19T00:51:50.180Z,7.80
2023-02-19T00:54:18.625Z,7.70
2023-02-19T00:56:46.666Z,7.50
2023-02-19T00:59:14.870Z,7.50
2023-02-19T01:01:44.730Z,7.50
2023-02-19T01:04:13.029Z,7.60
2023-02-19T01:06:41.594Z,7.50
2023-02-19T01:09:09.473Z,7.50
2023-02-19T01:11:37.625Z,7.50
2023-02-19T01:14:05.867Z,7.50
2023-02-19T01:16:33.654Z,7.50
2023-02-19T01:19:01.539Z,7.50
2023-02-19T01:21:30.900Z,7.50
2023-02-19T01:23:59.167Z,7.40
2023-02-19T01:26:30.997Z,7.40
2023-02-19T01:29:00.690Z,7.40
2023-02-19T01:31:29.148Z,7.40
2023-02-19T01:33:59.669Z,7.40
2023-02-19T01:36:29.617Z,7.30
2023-02-19T01:38:59.835Z,7.40
2023-02-19T01:41:27.628Z,7.60
2023-02-19T01:44:04.079Z,7.50
2023-02-19T01:46:37.328Z,7.40
2023-02-19T01:49:28.344Z,7.30
2023-02-19T01:52:00.905Z,7.40
2023-02-19T01:54:32.622Z,7.50
2023-02-19T01:57:04.367Z,7.50
2023-02-19T01:59:33.454Z,7.50
2023-02-19T02:02:01.744Z,7.50
2023-02-19T02:04:34.183Z,7.40
2023-02-19T02:07:24.637Z,7.20
2023-02-19T02:10:11.943Z,7.10
2023-02-19T02:12:39.751Z,7.20
2023-02-19T02:15:08.088Z,7.00
2023-02-19T02:18:14.462Z,7.10
2023-02-19T02:21:02.696Z,7.10
2023-02-19T02:24:12.170Z,7.10
2023-02-19T02:26:43.496Z,6.90
2023-02-19T02:29:37.586Z,7.00
2023-02-19T02:32:27.089Z,7.10
2023-02-19T02:35:04.291Z,7.10
2023-02-19T02:37:36.094Z,7.00
2023-02-19T02:40:05.906Z,6.90
2023-02-19T02:42:35.124Z,7.00
2023-02-19T02:45:36.113Z,6.90
2023-02-19T02:48:30.375Z,6.70
2023-02-19T02:51:04.561Z,7.00
2023-02-19T02:54:09.611Z,7.10
2023-02-19T02:56:40.439Z,7.20
2023-02-19T02:59:12.651Z,7.20
2023-02-19T03:02:10.866Z,7.10
2023-02-19T03:05:22.322Z,7.00
2023-02-19T03:08:10.114Z,6.90
2023-02-19T03:10:47.772Z,6.80
2023-02-19T03:13:41.159Z,6.80
2023-02-19T03:16:50.242Z,6.80
2023-02-19T03:19:20.755Z,6.70
2023-02-19T03:22:10.994Z,6.70
2023-02-19T03:25:04.179Z,6.80
2023-02-19T03:27:35.020Z,6.80
2023-02-19T03:30:10.161Z,6.70
2023-02-19T03:32:55.939Z,6.70
2023-02-19T03:35:29.053Z,6.60
2023-02-19T03:38:21.283Z,6.50
2023-02-19T03:40:57.231Z,6.30
2023-02-19T03:43:41.522Z,5.80
2023-02-19T03:46:23.331Z,5.60
2023-02-19T03:48:57.472Z,5.70
2023-02-19T03:51:42.886Z,5.80
2023-02-19T03:54:16.934Z,5.80
2023-02-19T03:56:48.836Z,5.80
2023-02-19T03:59:22.532Z,5.80
2023-02-19T04:02:19.528Z,5.60
2023-02-19T04:05:08.741Z,5.50
2023-02-19T04:07:41.624Z,5.70
2023-02-19T04:10:11.301Z,5.80
2023-02-19T04:12:51.685Z,5.70
2023-02-19T04:15:25.843Z,5.50
2023-02-19T04:18:22.726Z,5.30
2023-02-19T04:20:51.315Z,5.30
2023-02-19T04:23:23.395Z,5.30
2023-02-19T04:25:56.390Z,5.30
2023-02-19T04:28:24.203Z,5.40
2023-02-19T04:30:51.965Z,5.50
2023-02-19T04:33:19.751Z,5.50
2023-02-19T04:35:47.505Z,5.40
2023-02-19T04:38:15.248Z,5.40
2023-02-19T04:40:43.053Z,5.40
2023-02-19T04:43:10.796Z,5.40
2023-02-19T04:45:39.298Z,5.50
2023-02-19T04:48:07.049Z,5.70
2023-02-19T04:50:34.803Z,5.60
2023-02-19T04:53:02.510Z,5.70
2023-02-19T04:55:30.283Z,5.70
2023-02-19T04:57:57.995Z,5.80
2023-02-19T05:00:25.717Z,6.00
2023-02-19T05:02:53.358Z,6.20
2023-02-19T05:05:21.371Z,6.20
2023-02-19T05:07:49.245Z,6.10
2023-02-19T05:10:17.073Z,6.20
2023-02-19T05:12:44.839Z,6.30
2023-02-19T05:15:12.830Z,6.20
2023-02-19T05:17:40.562Z,6.30
2023-02-19T05:20:09.060Z,6.20
2023-02-19T05:22:36.807Z,6.20
2023-02-19T05:25:05.279Z,6.30
2023-02-19T05:27:33.281Z,6.40
2023-02-19T05:30:01.156Z,6.40
2023-02-19T05:32:28.893Z,6.40
2023-02-19T05:34:56.733Z,6.40
2023-02-19T05:37:24.472Z,6.60
2023-02-19T05:39:52.247Z,6.60
2023-02-19T05:42:19.979Z,6.50
2023-02-19T05:44:47.760Z,6.50
2023-02-19T05:47:15.552Z,6.50
2023-02-19T05:49:43.375Z,6.40
2023-02-19T05:52:11.207Z,6.40
2023-02-19T05:54:40.248Z,6.40
2023-02-19T05:57:07.960Z,6.50
2023-02-19T05:59:35.706Z,6.50
2023-02-19T06:02:03.493Z,6.60
2023-02-19T06:04:31.395Z,6.50
2023-02-19T06:06:59.054Z,6.50
2023-02-19T06:09:26.827Z,6.70
2023-02-19T06:11:54.539Z,6.60
2023-02-19T06:14:22.356Z,6.70
2023-02-19T06:16:50.124Z,6.90
2023-02-19T06:19:17.929Z,6.90
2023-02-19T06:21:46.883Z,6.90
2023-02-19T06:24:14.592Z,6.80
2023-02-19T06:26:42.408Z,6.90
2023-02-19T06:29:10.101Z,7.00
2023-02-19T06:31:37.968Z,7.10
2023-02-19T06:34:06.339Z,7.10
2023-02-19T06:36:34.559Z,7.10
2023-02-19T06:39:04.350Z,7.20
2023-02-19T06:41:32.452Z,7.20
2023-02-19T06:44:00.657Z,7.10
2023-02-19T06:46:28.515Z,6.70
2023-02-19T06:48:56.363Z,6.80
2023-02-19T06:51:27.249Z,6.80
2023-02-19T06:53:55.436Z,6.80
2023-02-19T06:56:27.726Z,6.80
2023-02-19T06:58:58.182Z,6.70
2023-02-19T07:01:27.157Z,6.70
2023-02-19T07:03:55.062Z,6.70
2023-02-19T07:06:24.785Z,6.50
2023-02-19T07:08:54.462Z,6.60
2023-02-19T07:11:22.285Z,6.70
2023-02-19T07:13:56.090Z,6.70
2023-02-19T07:16:24.346Z,6.80
2023-02-19T07:18:52.137Z,6.80
2023-02-19T07:21:20.193Z,6.90
2023-02-19T07:23:47.990Z,6.80
2023-02-19T07:26:19.308Z,6.90
2023-02-19T07:28:51.609Z,6.90
2023-02-19T07:31:21.402Z,6.90
2023-02-19T07:33:49.420Z,7.00
2023-02-19T07:36:18.065Z,6.90
2023-02-19T07:38:46.389Z,7.00
2023-02-19T07:41:14.577Z,6.60
2023-02-19T07:43:42.597Z,6.60
2023-02-19T07:46:12.868Z,6.50
2023-02-19T07:48:43.486Z,6.60
2023-02-19T07:51:14.492Z,6.80
2023-02-19T07:53:42.336Z,6.90
2023-02-19T07:56:12.716Z,6.90
2023-02-19T07:58:41.081Z,7.00
2023-02-19T08:01:09.189Z,7.00
2023-02-19T08:03:38.182Z,7.00
2023-02-19T08:06:06.576Z,7.00
2023-02-19T08:08:34.349Z,6.90
2023-02-19T08:11:22.107Z,6.90
2023-02-19T08:13:50.985Z,6.90
2023-02-19T08:16:29.634Z,6.80
2023-02-19T08:19:03.936Z,6.50
2023-02-19T08:21:34.215Z,6.60
2023-02-19T08:24:02.264Z,6.70
2023-02-19T08:26:30.071Z,6.70
2023-02-19T08:28:59.137Z,6.80
2023-02-19T08:31:27.505Z,6.80
2023-02-19T08:33:55.283Z,6.80
2023-02-19T08:36:23.112Z,6.90
2023-02-19T08:38:50.978Z,6.90
2023-02-19T08:41:18.721Z,6.90
2023-02-19T08:43:46.573Z,6.90
2023-02-19T08:46:14.955Z,7.00
2023-02-19T08:48:42.787Z,7.00
2023-02-19T08:51:12.377Z,6.70
2023-02-19T08:53:41.566Z,6.80
2023-02-19T08:56:14.844Z,6.70
2023-02-19T08:58:43.573Z,6.80
2023-02-19T09:01:14.165Z,6.90
2023-02-19T09:03:42.259Z,7.10
2023-02-19T09:06:19.788Z,7.20
2023-02-19T09:08:47.983Z,7.30
2023-02-19T09:11:15.957Z,7.30
2023-02-19T09:13:43.941Z,7.50
2023-02-19T09:16:13.894Z,7.60
2023-02-19T09:18:41.738Z,7.70
2023-02-19T09:21:10.063Z,7.70
2023-02-19T09:23:38.156Z,7.70
2023-02-19T09:26:09.461Z,7.60
2023-02-19T09:28:39.858Z,7.60
2023-02-19T09:31:13.757Z,7.60
2023-02-19T09:33:46.364Z,7.60
2023-02-19T09:36:15.691Z,7.40
2023-02-19T09:38:43.630Z,7.60
2023-02-19T09:41:30.479Z,7.70
2023-02-19T09:43:59.912Z,7.70
2023-02-19T09:46:57.317Z,7.70
2023-02-19T09:49:36.806Z,7.70
2023-02-19T09:52:19.211Z,7.80
2023-02-19T09:54:48.080Z,7.90
2023-02-19T09:57:21.588Z,8.00
2023-02-19T10:00:00.541Z,7.90
2023-02-19T10:02:30.978Z,8.00
2023-02-19T10:04:59.436Z,8.00
2023-02-19T10:07:39.188Z,7.90
2023-02-19T10:10:13.331Z,7.80
2023-02-19T10:12:48.363Z,7.80
2023-02-19T10:15:46.821Z,7.90
2023-02-19T10:18:18.022Z,7.90
2023-02-19T10:20:47.345Z,7.90
2023-02-19T10:23:16.626Z,8.10
2023-02-19T10:25:51.965Z,8.10
2023-02-19T10:28:23.065Z,8.00
2023-02-19T10:30:57.280Z,8.00
2023-02-19T10:33:26.376Z,8.00
2023-02-19T10:36:04.934Z,8.20
2023-02-19T10:38:39.957Z,8.30
2023-02-19T10:41:14.555Z,8.50
2023-02-19T10:43:50.432Z,8.80
2023-02-19T10:46:30.576Z,8.80
2023-02-19T10:49:07.016Z,8.80
2023-02-19T10:51:41.944Z,8.90
2023-02-19T10:54:31.997Z,9.00
2023-02-19T10:57:14.944Z,8.80
2023-02-19T10:59:53.703Z,8.80
2023-02-19T11:02:22.276Z,8.90
2023-02-19T11:05:18.377Z,9.00
2023-02-19T11:07:53.989Z,9.20
2023-02-19T11:10:29.459Z,9.40
2023-02-19T11:13:03.094Z,9.20
2023-02-19T11:15:38.121Z,9.30
2023-02-19T11:18:21.779Z,9.50
2023-02-19T11:20:51.299Z,9.60
2023-02-19T11:23:25.301Z,9.50
2023-02-19T11:25:54.551Z,9.50
2023-02-19T11:28:40.476Z,9.60
2023-02-19T11:31:25.457Z,9.60
2023-02-19T11:34:03.840Z,9.90
2023-02-19T11:36:35.378Z,9.90
2023-02-19T11:39:26.607Z,10.00
2023-02-19T11:42:24.440Z,10.00
2023-02-19T11:45:14.066Z,9.90
2023-02-19T11:47:53.717Z,10.20
2023-02-19T11:50:44.664Z,10.20
2023-02-19T11:53:29.884Z,10.30
2023-02-19T11:56:16.520Z,10.40
2023-02-19T11:59:02.622Z,10.50
2023-02-19T12:01:55.912Z,10.30
2023-02-19T12:04:56.673Z,10.40
2023-02-19T12:07:49.124Z,10.50
2023-02-19T12:10:26.497Z,10.50
2023-02-19T12:13:20.113Z,10.60
2023-02-19T12:16:03.189Z,10.70
2023-02-19T12:18:50.912Z,10.90
2023-02-19T12:21:45.285Z,11.10
2023-02-19T12:24:28.162Z,11.30
2023-02-19T12:27:26.319Z,11.50
2023-02-19T12:30:17.305Z,11.80
2023-02-19T12:33:00.970Z,11.70
2023-02-19T12:35:31.609Z,11.80
2023-02-19T12:38:05.643Z,12.10
2023-02-19T12:40:39.739Z,12.30
2023-02-19T12:43:07.540Z,12.30
2023-02-19T12:45:44.372Z,12.20
2023-02-19T12:48:19.513Z,12.10
2023-02-19T12:50:52.128Z,12.00
2023-02-19T12:53:38.309Z,12.00
2023-02-19T12:56:28.681Z,12.00
2023-02-19T12:59:26.348Z,12.10
2023-02-19T13:02:21.212Z,12.10
2023-02-19T13:04:54.939Z,12.40
2023-02-19T13:07:40.332Z,12.50
2023-02-19T13:10:23.352Z,12.50
2023-02-19T13:12:53.245Z,12.60
2023-02-19T13:15:41.863Z,12.70
2023-02-19T13:18:20.343Z,12.80
2023-02-19T13:20:51.879Z,12.90
2023-02-19T13:23:47.173Z,13.00
2023-02-19T13:26:36.537Z,13.00
2023-02-19T13:29:25.762Z,13.00
2023-02-19T13:32:13.920Z,12.70
2023-02-19T13:34:56.801Z,13.00
2023-02-19T13:37:25.155Z,13.00
2023-02-19T13:39:55.117Z,13.00
2023-02-19T13:42:28.233Z,13.10
2023-02-19T13:44:57.992Z,13.20
2023-02-19T13:47:58.577Z,13.30
2023-02-19T13:50:32.307Z,13.40
2023-02-19T13:53:20.963Z,13.40
2023-02-19T13:55:54.290Z,13.50
2023-02-19T13:58:34.594Z,13.60
2023-02-19T14:01:12.751Z,13.80
2023-02-19T14:03:48.343Z,14.00
2023-02-19T14:06:16.305Z,14.20
2023-02-19T14:08:48.963Z,14.30
2023-02-19T14:11:17.511Z,14.40
2023-02-19T14:13:51.367Z,14.60
2023-02-19T14:16:40.155Z,14.50
2023-02-19T14:19:42.978Z,14.50
2023-02-19T14:22:48.902Z,14.40
2023-02-19T14:25:32.050Z,14.10
2023-02-19T14:28:04.840Z,14.00
2023-02-19T14:30:34.972Z,14.00
2023-02-19T14:33:11.186Z,14.00
2023-02-19T14:35:43.672Z,13.90
2023-02-19T14:38:20.372Z,13.80
2023-02-19T14:40:49.441Z,13.70
2023-02-19T14:43:21.269Z,13.50
2023-02-19T14:45:56.569Z,13.40
2023-02-19T14:48:47.402Z,13.20
2023-02-19T14:51:38.778Z,13.10
2023-02-19T14:54:32.424Z,13.00
2023-02-19T14:57:02.235Z,12.90
2023-02-19T14:59:30.964Z,12.80
2023-02-19T15:02:13.426Z,12.80
2023-02-19T15:04:41.260Z,12.70
2023-02-19T15:07:14.698Z,12.60
2023-02-19T15:09:49.721Z,12.60
2023-02-19T15:12:26.859Z,12.50
2023-02-19T15:15:00.087Z,12.60
2023-02-19T15:17:30.934Z,12.50
2023-02-19T15:20:04.567Z,12.50
2023-02-19T15:22:33.786Z,12.60
2023-02-19T15:25:03.552Z,12.50
2023-02-19T15:27:33.022Z,12.60
2023-02-19T15:30:01.054Z,12.60
2023-02-19T15:32:29.009Z,12.60
2023-02-19T15:34:59.617Z,12.60
2023-02-19T15:37:30.413Z,12.50
2023-02-19T15:40:01.360Z,12.40
2023-02-19T15:42:32.277Z,12.40
2023-02-19T15:45:19.611Z,12.40
2023-02-19T15:48:11.374Z,12.30
2023-02-19T15:50:44.696Z,12.30
2023-02-19T15:53:21.059Z,12.20
2023-02-19T15:55:58.757Z,12.30
2023-02-19T15:58:44.022Z,12.20
2023-02-19T16:01:32.088Z,12.10
2023-02-19T16:04:00.616Z,12.10
2023-02-19T16:06:29.209Z,12.00
2023-02-19T16:09:02.331Z,12.00
2023-02-19T16:11:46.673Z,11.90
2023-02-19T16:14:17.465Z,11.90
2023-02-19T16:16:47.500Z,11.80
2023-02-19T16:19:31.075Z,11.70
2023-02-19T16:21:59.703Z,11.70
2023-02-19T16:24:27.331Z,11.70
2023-02-19T16:26:56.106Z,11.60
2023-02-19T16:29:33.865Z,11.50
2023-02-19T16:32:05.276Z,11.40
2023-02-19T16:34:40.854Z,11.30
2023-02-19T16:37:30.556Z,11.20
2023-02-19T16:40:18.218Z,11.10
2023-02-19T16:42:52.300Z,11.00
2023-02-19T16:45:19.966Z,10.90
2023-02-19T16:47:51.471Z,10.90
2023-02-19T16:50:23.202Z,10.80
2023-02-19T16:52:59.952Z,10.80
2023-02-19T16:55:29.378Z,10.80
2023-02-19T16:57:57.287Z,10.70
2023-02-19T17:00:30.731Z,10.70
2023-02-19T17:03:03.260Z,10.80
2023-02-19T17:05:32.745Z,10.80
2023-02-19T17:08:00.639Z,10.80
2023-02-19T17:10:28.847Z,10.70
2023-02-19T17:12:56.735Z,10.70
2023-02-19T17:15:24.425Z,10.70
2023-02-19T17:17:52.273Z,10.70
2023-02-19T17:20:26.642Z,10.70
2023-02-19T17:22:58.027Z,10.70
2023-02-19T17:25:25.850Z,10.70
2023-02-19T17:27:53.676Z,10.60
2023-02-19T17:30:27.359Z,10.60
2023-02-19T17:32:55.349Z,10.60
2023-02-19T17:35:26.519Z,10.60
2023-02-19T17:37:55.321Z,10.60
2023-02-19T17:40:33.184Z,10.60
2023-02-19T17:43:02.790Z,10.60
2023-02-19T17:45:30.836Z,10.50
2023-02-19T17:47:59.645Z,10.50
2023-02-19T17:50:31.625Z,10.50
2023-02-19T17:52:59.619Z,10.50
2023-02-19T17:55:27.516Z,10.50
2023-02-19T17:57:55.550Z,10.50
2023-02-19T18:00:29.685Z,10.50
2023-02-19T18:02:57.572Z,10.50
2023-02-19T18:05:25.428Z,10.50
2023-02-19T18:07:53.196Z,10.50
2023-02-19T18:10:23.795Z,10.40
2023-02-19T18:12:52.036Z,10.30
2023-02-19T18:15:27.072Z,10.30
2023-02-19T18:17:56.270Z,10.30
2023-02-19T18:20:27.295Z,10.30
2023-02-19T18:22:56.305Z,10.30
2023-02-19T18:25:24.581Z,10.20
2023-02-19T18:27:52.751Z,10.20
2023-02-19T18:30:22.910Z,10.20
2023-02-19T18:32:51.293Z,10.20
2023-02-19T18:35:19.989Z,10.20
2023-02-19T18:37:54.880Z,10.30
2023-02-19T18:40:26.061Z,10.40
2023-02-19T18:42:53.837Z,10.40
2023-02-19T18:45:21.837Z,10.40
2023-02-19T18:47:51.073Z,10.40
2023-02-19T18:50:19.817Z,10.30
2023-02-19T18:52:47.727Z,10.30
2023-02-19T18:55:15.596Z,10.40
2023-02-19T18:57:44.356Z,10.40
2023-02-19T19:00:21.264Z,10.40
2023-02-19T19:02:51.326Z,10.40
2023-02-19T19:05:23.968Z,10.40
2023-02-19T19:07:56.783Z,10.40
2023-02-19T19:10:24.900Z,10.40
2023-02-19T19:12:54.218Z,10.40
2023-02-19T19:15:22.640Z,10.50
2023-02-19T19:17:50.881Z,10.50
2023-02-19T19:20:20.647Z,10.50
2023-02-19T19:22:53.145Z,10.40
2023-02-19T19:25:21.918Z,10.40
2023-02-19T19:27:53.193Z,10.50
2023-02-19T19:30:21.248Z,10.50
2023-02-19T19:32:52.722Z,10.50
2023-02-19T19:35:21.488Z,10.50
2023-02-19T19:37:49.805Z,10.40
2023-02-19T19:40:18.760Z,10.40
2023-02-19T19:42:47.074Z,10.40
2023-02-19T19:45:15.624Z,10.40
2023-02-19T19:47:43.511Z,10.40
2023-02-19T19:50:13.300Z,10.40
2023-02-19T19:52:41.222Z,10.40
2023-02-19T19:55:09.809Z,10.40
2023-02-19T19:57:40.330Z,10.40
2023-02-19T20:00:09.643Z,10.50
2023-02-19T20:02:42.991Z,10.40
2023-02-19T20:05:12.069Z,10.40
2023-02-19T20:07:40.141Z,10.40
2023-02-19T20:10:08.727Z,10.50
2023-02-19T20:12:36.465Z,10.40
2023-02-19T20:15:04.937Z,10.50
2023-02-19T20:17:32.773Z,10.40
2023-02-19T20:20:00.642Z,10.30
2023-02-19T20:22:28.409Z,10.30
2023-02-19T20:24:56.280Z,10.30
2023-02-19T20:27:24.514Z,10.20
2023-02-19T20:29:52.231Z,10.20
2023-02-19T20:32:20.046Z,10.10
2023-02-19T20:34:48.454Z,10.20
2023-02-19T20:37:16.246Z,10.00
2023-02-19T20:39:44.210Z,9.90
2023-02-19T20:42:16.439Z,10.00
2023-02-19T20:44:45.264Z,9.90
2023-02-19T20:47:13.039Z,10.00
2023-02-19T20:49:45.264Z,9.80
2023-02-19T20:52:15.688Z,9.70
2023-02-19T20:54:44.558Z,9.60
2023-02-19T20:57:12.443Z,9.70
2023-02-19T20:59:41.126Z,9.70
2023-02-19T21:02:19.829Z,9.70
2023-02-19T21:04:48.546Z,9.70
2023-02-19T21:07:16.419Z,9.70
2023-02-19T21:09:44.172Z,9.60
2023-02-19T21:12:12.712Z,9.60
2023-02-19T21:14:40.830Z,9.50
2023-02-19T21:17:08.645Z,9.60
2023-02-19T21:19:36.429Z,9.90
2023-02-19T21:22:04.322Z,10.10
2023-02-19T21:24:34.895Z,10.10
2023-02-19T21:27:02.660Z,10.20
2023-02-19T21:29:30.433Z,10.00
2023-02-19T21:31:58.972Z,9.90
2023-02-19T21:34:29.448Z,9.80
2023-02-19T21:36:59.855Z,9.80
2023-02-19T21:39:28.209Z,9.70
2023-02-19T21:41:58.766Z,9.80
2023-02-19T21:44:26.723Z,9.70
2023-02-19T21:46:54.501Z,9.60
2023-02-19T21:49:22.350Z,9.60
2023-02-19T21:51:50.516Z,9.60
2023-02-19T21:54:27.206Z,9.60
2023-02-19T21:56:55.445Z,9.60
2023-02-19T21:59:23.713Z,9.70
2023-02-19T22:01:51.565Z,9.70
2023-02-19T22:04:21.369Z,9.90
2023-02-19T22:06:49.103Z,9.80
2023-02-19T22:09:17.119Z,9.80
2023-02-19T22:11:44.951Z,9.70
2023-02-19T22:14:12.901Z,9.70
2023-02-19T22:16:40.754Z,9.70
2023-02-19T22:19:10.011Z,9.80
2023-02-19T22:21:43.707Z,9.70
2023-02-19T22:24:19.732Z,9.70
2023-02-19T22:26:48.229Z,9.70
2023-02-19T22:29:17.025Z,9.80
2023-02-19T22:31:45.083Z,9.90
2023-02-19T22:34:13.281Z,10.00
2023-02-19T22:36:41.235Z,10.10
2023-02-19T22:39:16.618Z,10.10
2023-02-19T22:41:45.049Z,9.90
2023-02-19T22:44:12.862Z,9.80
2023-02-19T22:46:49.391Z,10.00
2023-02-19T22:49:17.488Z,9.80
2023-02-19T22:52:00.194Z,9.80
2023-02-19T22:54:27.909Z,9.70
2023-02-19T22:56:56.179Z,9.60
2023-02-19T22:59:24.048Z,9.60
2023-02-19T23:01:52.820Z,9.60
2023-02-19T23:04:22.022Z,9.60
2023-02-19T23:06:50.472Z,9.50
2023-02-19T23:09:24.628Z,9.60
2023-02-19T23:11:53.452Z,9.70
2023-02-19T23:14:22.555Z,9.60
2023-02-19T23:16:50.361Z,9.60
2023-02-19T23:19:18.110Z,9.70
2023-02-19T23:21:46.230Z,9.70
2023-02-19T23:24:15.434Z,9.70
2023-02-19T23:26:49.281Z,9.80
2023-02-19T23:29:25.479Z,9.80
2023-02-19T23:31:54.888Z,9.80
2023-02-19T23:34:23.137Z,9.80
2023-02-19T23:36:51.822Z,9.70
2023-02-19T23:39:21.565Z,9.70
2023-02-19T23:41:52.177Z,9.70
2023-02-19T23:44:21.101Z,9.70
2023-02-19T23:46:49.221Z,9.70
2023-02-19T23:49:17.674Z,9.70
2023-02-19T23:51:45.956Z,9.60
2023-02-19T23:54:14.151Z,9.60
2023-02-19T23:56:41.987Z,9.60
2023-02-19T23:59:10.146Z,9.70
